Louisville, KY (40223)

4:00 PM EDT op 20 september 2014 (GMT -0400)
Owl Creek Country Club | Change Station
CLOSE
Current Station
Persoonlijk weerstation
Location: Anchorage, KY
Geometrische hoogte: 730 ft
Nabije weerstations

Hoogte 730 ft 38.28 °N, 85.53 °W | Updated 4 minutes ago

Merendeels bewolkt
Merendeels bewolkt
81.3 °F
Voelt als 84 °F
N
2.0
Wind Variabel Wind van ZW
Gusts 8.0 mijl/u

Vandaag
Hoog -- | Laag -- °F
--% Kans op neerslag
Gisteren
Hoog -- | Laag -- °F
Precip. -- inches
7:28 AM 7:42 PM
Afnemende halvemaan, 11% visible
Druk 30.00 inches
Zicht 10.0 mijlen
Wolken Gering 4100 ft
Warmteindex 84 °F
Dauwpunt 69 °F
Vochtigheid 66%
Neerslag 0.00 inches
Dikte sneeuw Niet beschikbaar.
UV 5 van de 12
Pollen 6.70 van de 12
Ozon Goed
PM2.5 Matig
Flu Activity Niet beschikbaar.
METAR KLOU 201953Z 21008KT 10SM FEW041 28/18 A3001 RMK AO2 SLP157 T02780183

More Conditions Fewer Conditions

Druk 30.00 inches
Zicht 10.0 mijlen
Wolken Gering 4100 ft
Warmteindex 84 °F
Dauwpunt 69 °F
Vochtigheid 66%
Neerslag 0.00 inches
Dikte sneeuw Niet beschikbaar.
UV 5 van de 12
Pollen 6.70 van de 12
Ozon Goed
PM2.5 Matig
Flu Activity Niet beschikbaar.
METAR KLOU 201953Z 21008KT 10SM FEW041 28/18 A3001 RMK AO2 SLP157 T02780183

More Conditions Fewer Conditions

10-Day Weather Forecast

Almanac

Astronomie

Sep. 20, 2014 Opkomst Ondergang
Werkelijke tijd 7:28 AM EDT 7:42 PM EDT
Burgerlijke schemering 7:01 AM EDT 8:08 PM EDT
Nautische schemering 6:30 AM EDT 8:39 PM EDT
Astronomische schemering 5:59 AM EDT 9:10 PM EDT
Maan 4:08 AM EDT 5:43 PM EDT
Golflengte van het zichtbare licht 13h 06m
Daglengte
12h 14m
Tomorrow will be 2m 26s shorter.
Afnemende halvemaan, 11% of the Moon is Illuminated
Vandaag
Afnemende halvemaan
sep 24
Nieuw
oktober 1
Eerste kwartier
oktober 8
Volle maan
oktober 15
Laatste kwartier

Extremen vandaag

State Highs State Lows

Community

WunderPhotos

Upload Photos

1,754,927 foto’s ge-upload!

WunderBlogs® & News

Nearby

Luchtkwaliteit

  Luchtkwaliteit LK-index Verontreinigende stof
Gisteren Goed
PM10
Gisteren Matig
OZONE
Actueel Matig
PM2.5
Actueel Goed
OZONE
zaterdag Matig
PM2.5
zaterdag Goed
OZONE
zondag Goed
PM2.5
zondag Goed
OZONE
maandag Goed
PM2.5
maandag Goed
OZONE

Dikte sneeuw

Station Depth Geometrische hoogte
Er is geen verse sneeuw gerapporteerd.

Aardbevingen

Stad Distance Mag. Time & Date
No recent earthquake activity has been reported nearby.
Minimum magnitude displayed is 2.5.

Watertemperatuur langs de kust

Plaats Temperatuur
Geen meldingen van stations

Nabije weerstations